sensor_id;sensor_type;location;lat;lon;timestamp;P1;durP1;ratioP1;P2;durP2;ratioP2
58896;SDS011;44677;52.378;10.400;2024-01-15T00:01:41;12.90;;;8.30;;
58896;SDS011;44677;52.378;10.400;2024-01-15T00:04:08;12.20;;;8.30;;
58896;SDS011;44677;52.378;10.400;2024-01-15T00:06:33;13.10;;;8.70;;
58896;SDS011;44677;52.378;10.400;2024-01-15T00:08:58;13.50;;;8.10;;
58896;SDS011;44677;52.378;10.400;2024-01-15T00:11:24;12.00;;;8.10;;
58896;SDS011;44677;52.378;10.400;2024-01-15T00:13:49;12.80;;;7.60;;
58896;SDS011;44677;52.378;10.400;2024-01-15T00:16:14;13.60;;;7.60;;
58896;SDS011;44677;52.378;10.400;2024-01-15T00:18:40;11.50;;;7.60;;
58896;SDS011;44677;52.378;10.400;2024-01-15T00:21:05;13.40;;;7.60;;
58896;SDS011;44677;52.378;10.400;2024-01-15T00:23:30;13.10;;;7.60;;
58896;SDS011;44677;52.378;10.400;2024-01-15T00:25:56;11.70;;;7.90;;
58896;SDS011;44677;52.378;10.400;2024-01-15T00:28:21;11.50;;;7.70;;
58896;SDS011;44677;52.378;10.400;2024-01-15T00:30:47;11.30;;;7.60;;
58896;SDS011;44677;52.378;10.400;2024-01-15T00:33:12;9.70;;;6.80;;
58896;SDS011;44677;52.378;10.400;2024-01-15T00:35:39;10.10;;;6.70;;
58896;SDS011;44677;52.378;10.400;2024-01-15T00:38:05;11.80;;;7.00;;
58896;SDS011;44677;52.378;10.400;2024-01-15T00:40:30;12.10;;;7.00;;
58896;SDS011;44677;52.378;10.400;2024-01-15T00:42:55;11.50;;;7.20;;
58896;SDS011;44677;52.378;10.400;2024-01-15T00:45:21;10.10;;;6.30;;
58896;SDS011;44677;52.378;10.400;2024-01-15T00:47:46;12.00;;;6.40;;
58896;SDS011;44677;52.378;10.400;2024-01-15T00:50:12;8.80;;;6.20;;
58896;SDS011;44677;52.378;10.400;2024-01-15T00:52:37;12.60;;;6.20;;
58896;SDS011;44677;52.378;10.400;2024-01-15T00:55:03;9.30;;;6.10;;
58896;SDS011;44677;52.378;10.400;2024-01-15T00:57:28;10.80;;;6.20;;
58896;SDS011;44677;52.378;10.400;2024-01-15T00:59:54;8.20;;;5.70;;
58896;SDS011;44677;52.378;10.400;2024-01-15T01:02:19;11.20;;;6.50;;
58896;SDS011;44677;52.378;10.400;2024-01-15T01:04:45;9.80;;;6.20;;
58896;SDS011;44677;52.378;10.400;2024-01-15T01:07:10;9.20;;;6.30;;
58896;SDS011;44677;52.378;10.400;2024-01-15T01:09:35;7.10;;;5.30;;
58896;SDS011;44677;52.378;10.400;2024-01-15T01:12:01;9.60;;;5.40;;
58896;SDS011;44677;52.378;10.400;2024-01-15T01:14:26;9.40;;;5.40;;
58896;SDS011;44677;52.378;10.400;2024-01-15T01:16:51;5.30;;;4.60;;
58896;SDS011;44677;52.378;10.400;2024-01-15T01:19:17;7.40;;;4.30;;
58896;SDS011;44677;52.378;10.400;2024-01-15T01:21:42;9.00;;;4.30;;
58896;SDS011;44677;52.378;10.400;2024-01-15T01:24:08;10.50;;;4.50;;
58896;SDS011;44677;52.378;10.400;2024-01-15T01:26:33;11.30;;;5.00;;
58896;SDS011;44677;52.378;10.400;2024-01-15T01:28:58;9.20;;;4.30;;
58896;SDS011;44677;52.378;10.400;2024-01-15T01:31:24;7.70;;;4.60;;
58896;SDS011;44677;52.378;10.400;2024-01-15T01:33:50;7.10;;;4.50;;
58896;SDS011;44677;52.378;10.400;2024-01-15T01:36:15;6.10;;;4.00;;
58896;SDS011;44677;52.378;10.400;2024-01-15T01:38:40;7.60;;;4.50;;
58896;SDS011;44677;52.378;10.400;2024-01-15T01:41:06;6.60;;;4.70;;
58896;SDS011;44677;52.378;10.400;2024-01-15T01:43:31;4.40;;;3.60;;
58896;SDS011;44677;52.378;10.400;2024-01-15T01:45:57;6.90;;;4.40;;
58896;SDS011;44677;52.378;10.400;2024-01-15T01:48:26;7.40;;;4.50;;
58896;SDS011;44677;52.378;10.400;2024-01-15T01:50:53;7.00;;;4.10;;
58896;SDS011;44677;52.378;10.400;2024-01-15T01:53:20;8.80;;;4.50;;
58896;SDS011;44677;52.378;10.400;2024-01-15T01:55:46;9.20;;;3.90;;
58896;SDS011;44677;52.378;10.400;2024-01-15T01:58:12;11.00;;;4.70;;
58896;SDS011;44677;52.378;10.400;2024-01-15T02:00:37;12.40;;;4.00;;
58896;SDS011;44677;52.378;10.400;2024-01-15T02:03:02;8.00;;;3.90;;
58896;SDS011;44677;52.378;10.400;2024-01-15T02:05:28;8.40;;;3.50;;
58896;SDS011;44677;52.378;10.400;2024-01-15T02:07:54;7.80;;;3.70;;
58896;SDS011;44677;52.378;10.400;2024-01-15T02:10:19;11.00;;;4.20;;
58896;SDS011;44677;52.378;10.400;2024-01-15T02:12:45;8.10;;;3.60;;
58896;SDS011;44677;52.378;10.400;2024-01-15T02:15:10;6.80;;;3.80;;
58896;SDS011;44677;52.378;10.400;2024-01-15T02:17:55;6.70;;;3.50;;
58896;SDS011;44677;52.378;10.400;2024-01-15T02:20:21;9.80;;;3.50;;
58896;SDS011;44677;52.378;10.400;2024-01-15T02:22:47;15.00;;;3.40;;
58896;SDS011;44677;52.378;10.400;2024-01-15T02:25:12;7.20;;;3.10;;
58896;SDS011;44677;52.378;10.400;2024-01-15T02:27:37;5.60;;;2.80;;
58896;SDS011;44677;52.378;10.400;2024-01-15T02:30:03;7.90;;;2.70;;
58896;SDS011;44677;52.378;10.400;2024-01-15T02:32:29;12.10;;;3.10;;
58896;SDS011;44677;52.378;10.400;2024-01-15T02:34:54;9.00;;;2.70;;
58896;SDS011;44677;52.378;10.400;2024-01-15T02:37:21;6.80;;;2.70;;
58896;SDS011;44677;52.378;10.400;2024-01-15T02:39:46;4.80;;;2.80;;
58896;SDS011;44677;52.378;10.400;2024-01-15T02:42:11;5.50;;;2.50;;
58896;SDS011;44677;52.378;10.400;2024-01-15T02:44:37;6.30;;;2.50;;
58896;SDS011;44677;52.378;10.400;2024-01-15T02:47:02;5.80;;;2.50;;
58896;SDS011;44677;52.378;10.400;2024-01-15T02:49:27;6.50;;;2.40;;
58896;SDS011;44677;52.378;10.400;2024-01-15T02:51:53;5.90;;;2.80;;
58896;SDS011;44677;52.378;10.400;2024-01-15T02:54:18;4.80;;;2.10;;
58896;SDS011;44677;52.378;10.400;2024-01-15T02:56:43;5.50;;;2.20;;
58896;SDS011;44677;52.378;10.400;2024-01-15T02:59:09;6.20;;;1.90;;
58896;SDS011;44677;52.378;10.400;2024-01-15T03:01:34;6.80;;;2.40;;
58896;SDS011;44677;52.378;10.400;2024-01-15T03:03:59;4.30;;;1.90;;
58896;SDS011;44677;52.378;10.400;2024-01-15T03:06:25;7.90;;;2.10;;
58896;SDS011;44677;52.378;10.400;2024-01-15T03:08:50;7.40;;;2.30;;
58896;SDS011;44677;52.378;10.400;2024-01-15T03:11:15;4.20;;;2.10;;
58896;SDS011;44677;52.378;10.400;2024-01-15T03:13:41;7.10;;;2.40;;
58896;SDS011;44677;52.378;10.400;2024-01-15T03:16:06;11.60;;;2.40;;
58896;SDS011;44677;52.378;10.400;2024-01-15T03:18:32;6.10;;;2.20;;
58896;SDS011;44677;52.378;10.400;2024-01-15T03:20:57;7.80;;;2.30;;
58896;SDS011;44677;52.378;10.400;2024-01-15T03:23:23;6.20;;;2.20;;
58896;SDS011;44677;52.378;10.400;2024-01-15T03:25:48;4.70;;;2.20;;
58896;SDS011;44677;52.378;10.400;2024-01-15T03:28:14;6.40;;;2.10;;
58896;SDS011;44677;52.378;10.400;2024-01-15T03:30:39;11.50;;;2.60;;
58896;SDS011;44677;52.378;10.400;2024-01-15T03:33:04;5.90;;;1.90;;
58896;SDS011;44677;52.378;10.400;2024-01-15T03:35:30;11.80;;;2.50;;
58896;SDS011;44677;52.378;10.400;2024-01-15T03:37:56;6.90;;;2.20;;
58896;SDS011;44677;52.378;10.400;2024-01-15T03:40:21;4.20;;;2.00;;
58896;SDS011;44677;52.378;10.400;2024-01-15T03:42:46;5.80;;;2.20;;
58896;SDS011;44677;52.378;10.400;2024-01-15T03:45:12;5.00;;;2.20;;
58896;SDS011;44677;52.378;10.400;2024-01-15T03:47:37;5.00;;;1.90;;
58896;SDS011;44677;52.378;10.400;2024-01-15T03:50:02;7.50;;;1.90;;
58896;SDS011;44677;52.378;10.400;2024-01-15T03:52:28;4.70;;;1.60;;
58896;SDS011;44677;52.378;10.400;2024-01-15T03:54:54;9.40;;;2.10;;
58896;SDS011;44677;52.378;10.400;2024-01-15T03:57:19;7.60;;;2.10;;
58896;SDS011;44677;52.378;10.400;2024-01-15T03:59:44;8.40;;;1.70;;
58896;SDS011;44677;52.378;10.400;2024-01-15T04:02:12;6.30;;;1.60;;
58896;SDS011;44677;52.378;10.400;2024-01-15T04:04:40;6.90;;;2.20;;
58896;SDS011;44677;52.378;10.400;2024-01-15T04:07:07;4.90;;;2.10;;
58896;SDS011;44677;52.378;10.400;2024-01-15T04:09:32;7.00;;;1.90;;
58896;SDS011;44677;52.378;10.400;2024-01-15T04:11:58;5.20;;;1.50;;
58896;SDS011;44677;52.378;10.400;2024-01-15T04:14:24;5.00;;;1.50;;
58896;SDS011;44677;52.378;10.400;2024-01-15T04:16:49;7.30;;;2.00;;
58896;SDS011;44677;52.378;10.400;2024-01-15T04:19:14;3.70;;;1.60;;
58896;SDS011;44677;52.378;10.400;2024-01-15T04:21:40;8.30;;;1.70;;
58896;SDS011;44677;52.378;10.400;2024-01-15T04:24:06;9.20;;;2.10;;
58896;SDS011;44677;52.378;10.400;2024-01-15T04:26:32;6.70;;;1.30;;
58896;SDS011;44677;52.378;10.400;2024-01-15T04:28:57;4.20;;;1.40;;
58896;SDS011;44677;52.378;10.400;2024-01-15T04:31:24;7.00;;;1.60;;
58896;SDS011;44677;52.378;10.400;2024-01-15T04:33:50;8.10;;;1.40;;
58896;SDS011;44677;52.378;10.400;2024-01-15T04:36:16;4.40;;;1.50;;
58896;SDS011;44677;52.378;10.400;2024-01-15T04:38:41;9.90;;;2.00;;
58896;SDS011;44677;52.378;10.400;2024-01-15T04:41:09;4.30;;;1.40;;
58896;SDS011;44677;52.378;10.400;2024-01-15T04:43:36;10.80;;;2.30;;
58896;SDS011;44677;52.378;10.400;2024-01-15T04:46:01;6.60;;;1.60;;
58896;SDS011;44677;52.378;10.400;2024-01-15T04:48:28;5.60;;;1.50;;
58896;SDS011;44677;52.378;10.400;2024-01-15T04:50:53;8.30;;;1.70;;
58896;SDS011;44677;52.378;10.400;2024-01-15T04:53:19;8.60;;;1.90;;
58896;SDS011;44677;52.378;10.400;2024-01-15T04:55:44;9.40;;;1.60;;
58896;SDS011;44677;52.378;10.400;2024-01-15T04:58:09;6.60;;;2.20;;
58896;SDS011;44677;52.378;10.400;2024-01-15T05:00:35;6.30;;;1.70;;
58896;SDS011;44677;52.378;10.400;2024-01-15T05:03:00;4.60;;;1.60;;
58896;SDS011;44677;52.378;10.400;2024-01-15T05:05:25;4.80;;;1.60;;
58896;SDS011;44677;52.378;10.400;2024-01-15T05:07:51;3.30;;;1.80;;
58896;SDS011;44677;52.378;10.400;2024-01-15T05:10:16;3.80;;;1.70;;
58896;SDS011;44677;52.378;10.400;2024-01-15T05:12:41;6.80;;;1.90;;
58896;SDS011;44677;52.378;10.400;2024-01-15T05:15:07;5.40;;;2.30;;
58896;SDS011;44677;52.378;10.400;2024-01-15T05:17:32;6.30;;;1.80;;
58896;SDS011;44677;52.378;10.400;2024-01-15T05:19:57;5.20;;;1.40;;
58896;SDS011;44677;52.378;10.400;2024-01-15T05:22:23;9.60;;;1.70;;
58896;SDS011;44677;52.378;10.400;2024-01-15T05:24:49;4.50;;;1.50;;
58896;SDS011;44677;52.378;10.400;2024-01-15T05:27:15;7.40;;;2.00;;
58896;SDS011;44677;52.378;10.400;2024-01-15T05:29:40;4.30;;;2.20;;
58896;SDS011;44677;52.378;10.400;2024-01-15T05:32:05;4.60;;;1.50;;
58896;SDS011;44677;52.378;10.400;2024-01-15T05:34:31;4.10;;;1.70;;
58896;SDS011;44677;52.378;10.400;2024-01-15T05:36:56;8.60;;;1.70;;
58896;SDS011;44677;52.378;10.400;2024-01-15T05:39:21;5.30;;;1.60;;
58896;SDS011;44677;52.378;10.400;2024-01-15T05:41:47;7.20;;;2.10;;
58896;SDS011;44677;52.378;10.400;2024-01-15T05:44:12;5.80;;;2.30;;
58896;SDS011;44677;52.378;10.400;2024-01-15T05:46:37;7.10;;;1.50;;
58896;SDS011;44677;52.378;10.400;2024-01-15T05:49:03;4.50;;;1.70;;
58896;SDS011;44677;52.378;10.400;2024-01-15T05:51:29;5.20;;;1.60;;
58896;SDS011;44677;52.378;10.400;2024-01-15T05:53:54;4.30;;;1.70;;
58896;SDS011;44677;52.378;10.400;2024-01-15T05:56:19;7.50;;;2.10;;
58896;SDS011;44677;52.378;10.400;2024-01-15T05:58:45;5.60;;;1.50;;
58896;SDS011;44677;52.378;10.400;2024-01-15T06:01:10;3.60;;;1.60;;
58896;SDS011;44677;52.378;10.400;2024-01-15T06:03:36;5.90;;;1.40;;
58896;SDS011;44677;52.378;10.400;2024-01-15T06:06:01;5.30;;;1.50;;
58896;SDS011;44677;52.378;10.400;2024-01-15T06:08:27;4.20;;;1.40;;
58896;SDS011;44677;52.378;10.400;2024-01-15T06:10:53;5.70;;;1.80;;
58896;SDS011;44677;52.378;10.400;2024-01-15T06:13:18;5.90;;;2.30;;
58896;SDS011;44677;52.378;10.400;2024-01-15T06:15:43;8.60;;;2.50;;
58896;SDS011;44677;52.378;10.400;2024-01-15T06:18:09;4.30;;;1.60;;
58896;SDS011;44677;52.378;10.400;2024-01-15T06:20:34;8.90;;;3.00;;
58896;SDS011;44677;52.378;10.400;2024-01-15T06:23:00;5.90;;;1.80;;
58896;SDS011;44677;52.378;10.400;2024-01-15T06:25:25;4.70;;;1.60;;
58896;SDS011;44677;52.378;10.400;2024-01-15T06:27:50;4.20;;;2.00;;
58896;SDS011;44677;52.378;10.400;2024-01-15T06:30:16;5.90;;;1.60;;
58896;SDS011;44677;52.378;10.400;2024-01-15T06:32:41;7.80;;;1.80;;
58896;SDS011;44677;52.378;10.400;2024-01-15T06:35:07;5.10;;;1.90;;
58896;SDS011;44677;52.378;10.400;2024-01-15T06:37:32;5.00;;;1.70;;
58896;SDS011;44677;52.378;10.400;2024-01-15T06:39:58;5.20;;;1.80;;
58896;SDS011;44677;52.378;10.400;2024-01-15T06:42:24;6.80;;;1.90;;
58896;SDS011;44677;52.378;10.400;2024-01-15T06:44:50;6.00;;;1.90;;
58896;SDS011;44677;52.378;10.400;2024-01-15T06:47:16;4.20;;;1.70;;
58896;SDS011;44677;52.378;10.400;2024-01-15T06:49:42;3.70;;;1.80;;
58896;SDS011;44677;52.378;10.400;2024-01-15T06:52:08;6.30;;;2.20;;
58896;SDS011;44677;52.378;10.400;2024-01-15T06:54:33;6.00;;;1.80;;
58896;SDS011;44677;52.378;10.400;2024-01-15T06:56:59;4.40;;;1.90;;
58896;SDS011;44677;52.378;10.400;2024-01-15T06:59:24;4.30;;;2.10;;
58896;SDS011;44677;52.378;10.400;2024-01-15T07:01:49;3.70;;;2.00;;
58896;SDS011;44677;52.378;10.400;2024-01-15T07:04:15;3.60;;;1.80;;
58896;SDS011;44677;52.378;10.400;2024-01-15T07:06:40;3.40;;;1.90;;
58896;SDS011;44677;52.378;10.400;2024-01-15T07:09:05;7.30;;;2.30;;
58896;SDS011;44677;52.378;10.400;2024-01-15T07:11:31;5.20;;;2.20;;
58896;SDS011;44677;52.378;10.400;2024-01-15T07:13:56;2.40;;;2.20;;
58896;SDS011;44677;52.378;10.400;2024-01-15T07:16:22;6.50;;;1.90;;
58896;SDS011;44677;52.378;10.400;2024-01-15T07:18:47;5.60;;;1.80;;
58896;SDS011;44677;52.378;10.400;2024-01-15T07:21:12;4.60;;;1.90;;
58896;SDS011;44677;52.378;10.400;2024-01-15T07:23:38;7.10;;;1.80;;
58896;SDS011;44677;52.378;10.400;2024-01-15T07:26:03;4.80;;;1.90;;
58896;SDS011;44677;52.378;10.400;2024-01-15T07:28:30;4.20;;;1.70;;
58896;SDS011;44677;52.378;10.400;2024-01-15T07:30:55;3.60;;;2.00;;
58896;SDS011;44677;52.378;10.400;2024-01-15T07:33:21;6.40;;;2.80;;
58896;SDS011;44677;52.378;10.400;2024-01-15T07:35:46;6.70;;;2.20;;
58896;SDS011;44677;52.378;10.400;2024-01-15T07:38:12;5.60;;;2.70;;
58896;SDS011;44677;52.378;10.400;2024-01-15T07:40:37;5.00;;;2.20;;
58896;SDS011;44677;52.378;10.400;2024-01-15T07:43:02;8.00;;;2.40;;
58896;SDS011;44677;52.378;10.400;2024-01-15T07:45:28;6.00;;;1.90;;
58896;SDS011;44677;52.378;10.400;2024-01-15T07:47:53;8.60;;;2.00;;
58896;SDS011;44677;52.378;10.400;2024-01-15T07:50:19;5.80;;;2.10;;
58896;SDS011;44677;52.378;10.400;2024-01-15T07:52:44;5.90;;;2.30;;
58896;SDS011;44677;52.378;10.400;2024-01-15T07:55:10;3.90;;;2.30;;
58896;SDS011;44677;52.378;10.400;2024-01-15T07:57:35;3.00;;;1.80;;
58896;SDS011;44677;52.378;10.400;2024-01-15T08:00:01;5.10;;;2.40;;
58896;SDS011;44677;52.378;10.400;2024-01-15T08:02:30;3.00;;;1.60;;
58896;SDS011;44677;52.378;10.400;2024-01-15T08:04:55;5.90;;;2.00;;
58896;SDS011;44677;52.378;10.400;2024-01-15T08:07:20;8.10;;;2.70;;
58896;SDS011;44677;52.378;10.400;2024-01-15T08:09:46;7.60;;;2.70;;
58896;SDS011;44677;52.378;10.400;2024-01-15T08:12:12;7.50;;;2.30;;
58896;SDS011;44677;52.378;10.400;2024-01-15T08:14:38;2.90;;;2.30;;
58896;SDS011;44677;52.378;10.400;2024-01-15T08:17:03;6.10;;;2.60;;
58896;SDS011;44677;52.378;10.400;2024-01-15T08:19:29;5.20;;;3.20;;
58896;SDS011;44677;52.378;10.400;2024-01-15T08:21:54;9.50;;;2.90;;
58896;SDS011;44677;52.378;10.400;2024-01-15T08:24:20;3.20;;;2.20;;
58896;SDS011;44677;52.378;10.400;2024-01-15T08:26:45;3.50;;;2.40;;
58896;SDS011;44677;52.378;10.400;2024-01-15T08:29:10;5.70;;;2.70;;
58896;SDS011;44677;52.378;10.400;2024-01-15T08:31:36;6.50;;;2.80;;
58896;SDS011;44677;52.378;10.400;2024-01-15T08:34:01;3.80;;;2.90;;
58896;SDS011;44677;52.378;10.400;2024-01-15T08:36:27;5.90;;;2.70;;
58896;SDS011;44677;52.378;10.400;2024-01-15T08:38:54;7.30;;;3.20;;
58896;SDS011;44677;52.378;10.400;2024-01-15T08:41:20;6.70;;;2.80;;
58896;SDS011;44677;52.378;10.400;2024-01-15T08:43:45;5.80;;;2.70;;
58896;SDS011;44677;52.378;10.400;2024-01-15T08:46:10;5.50;;;3.10;;
58896;SDS011;44677;52.378;10.400;2024-01-15T08:48:36;5.90;;;3.40;;
58896;SDS011;44677;52.378;10.400;2024-01-15T08:51:01;5.20;;;3.20;;
58896;SDS011;44677;52.378;10.400;2024-01-15T08:53:27;7.30;;;3.10;;
58896;SDS011;44677;52.378;10.400;2024-01-15T08:55:53;9.30;;;3.20;;
58896;SDS011;44677;52.378;10.400;2024-01-15T08:58:18;3.20;;;2.70;;
58896;SDS011;44677;52.378;10.400;2024-01-15T09:00:43;6.70;;;2.80;;
58896;SDS011;44677;52.378;10.400;2024-01-15T09:03:09;3.80;;;2.30;;
58896;SDS011;44677;52.378;10.400;2024-01-15T09:05:35;4.60;;;2.70;;
58896;SDS011;44677;52.378;10.400;2024-01-15T09:08:00;4.70;;;2.70;;
58896;SDS011;44677;52.378;10.400;2024-01-15T09:10:25;5.60;;;3.20;;
58896;SDS011;44677;52.378;10.400;2024-01-15T09:12:51;4.00;;;2.70;;
58896;SDS011;44677;52.378;10.400;2024-01-15T09:15:16;5.00;;;2.60;;
58896;SDS011;44677;52.378;10.400;2024-01-15T09:17:42;5.80;;;2.90;;
58896;SDS011;44677;52.378;10.400;2024-01-15T09:20:08;7.20;;;2.90;;
58896;SDS011;44677;52.378;10.400;2024-01-15T09:22:34;3.60;;;2.50;;
58896;SDS011;44677;52.378;10.400;2024-01-15T09:25:00;3.80;;;2.70;;
58896;SDS011;44677;52.378;10.400;2024-01-15T09:27:25;4.30;;;2.60;;
58896;SDS011;44677;52.378;10.400;2024-01-15T09:29:54;4.90;;;2.90;;
58896;SDS011;44677;52.378;10.400;2024-01-15T09:32:19;8.00;;;3.00;;
58896;SDS011;44677;52.378;10.400;2024-01-15T09:34:48;4.90;;;2.40;;
58896;SDS011;44677;52.378;10.400;2024-01-15T09:37:14;5.00;;;2.80;;
58896;SDS011;44677;52.378;10.400;2024-01-15T09:39:40;2.60;;;2.20;;
58896;SDS011;44677;52.378;10.400;2024-01-15T09:42:05;4.40;;;2.10;;
58896;SDS011;44677;52.378;10.400;2024-01-15T09:44:31;3.10;;;1.80;;
58896;SDS011;44677;52.378;10.400;2024-01-15T09:46:57;4.70;;;2.30;;
58896;SDS011;44677;52.378;10.400;2024-01-15T09:49:22;5.10;;;2.10;;
58896;SDS011;44677;52.378;10.400;2024-01-15T09:51:48;4.80;;;2.20;;
58896;SDS011;44677;52.378;10.400;2024-01-15T09:54:13;6.90;;;1.90;;
58896;SDS011;44677;52.378;10.400;2024-01-15T09:56:42;6.50;;;2.50;;
58896;SDS011;44677;52.378;10.400;2024-01-15T09:59:12;5.30;;;2.10;;
58896;SDS011;44677;52.378;10.400;2024-01-15T10:01:41;8.10;;;2.40;;
58896;SDS011;44677;52.378;10.400;2024-01-15T10:04:09;6.00;;;2.50;;
58896;SDS011;44677;52.378;10.400;2024-01-15T10:06:35;7.30;;;2.90;;
58896;SDS011;44677;52.378;10.400;2024-01-15T10:09:01;7.50;;;2.60;;
58896;SDS011;44677;52.378;10.400;2024-01-15T10:13:53;4.70;;;2.20;;
58896;SDS011;44677;52.378;10.400;2024-01-15T10:16:22;4.60;;;2.00;;
58896;SDS011;44677;52.378;10.400;2024-01-15T10:18:48;6.60;;;2.30;;
58896;SDS011;44677;52.378;10.400;2024-01-15T10:21:14;5.30;;;2.40;;
58896;SDS011;44677;52.378;10.400;2024-01-15T10:23:40;4.40;;;2.10;;
58896;SDS011;44677;52.378;10.400;2024-01-15T10:26:06;5.70;;;2.30;;
58896;SDS011;44677;52.378;10.400;2024-01-15T10:28:32;11.20;;;2.10;;
58896;SDS011;44677;52.378;10.400;2024-01-15T10:30:58;9.20;;;2.30;;
58896;SDS011;44677;52.378;10.400;2024-01-15T10:33:27;9.90;;;2.40;;
58896;SDS011;44677;52.378;10.400;2024-01-15T10:35:58;5.80;;;2.70;;
58896;SDS011;44677;52.378;10.400;2024-01-15T10:38:25;4.50;;;1.90;;
58896;SDS011;44677;52.378;10.400;2024-01-15T10:40:54;2.60;;;1.90;;
58896;SDS011;44677;52.378;10.400;2024-01-15T10:43:20;4.00;;;1.80;;
58896;SDS011;44677;52.378;10.400;2024-01-15T10:45:47;6.20;;;2.00;;
58896;SDS011;44677;52.378;10.400;2024-01-15T10:48:16;7.40;;;2.40;;
58896;SDS011;44677;52.378;10.400;2024-01-15T10:53:13;4.20;;;1.90;;
58896;SDS011;44677;52.378;10.400;2024-01-15T10:55:39;3.60;;;1.90;;
58896;SDS011;44677;52.378;10.400;2024-01-15T11:00:33;2.60;;;1.60;;
58896;SDS011;44677;52.378;10.400;2024-01-15T11:02:59;2.50;;;1.40;;
58896;SDS011;44677;52.378;10.400;2024-01-15T11:05:26;3.50;;;1.90;;
58896;SDS011;44677;52.378;10.400;2024-01-15T11:07:54;4.10;;;2.00;;
58896;SDS011;44677;52.378;10.400;2024-01-15T11:10:53;3.90;;;2.20;;
58896;SDS011;44677;52.378;10.400;2024-01-15T11:18:31;6.20;;;1.60;;
58896;SDS011;44677;52.378;10.400;2024-01-15T11:23:42;7.00;;;1.90;;
58896;SDS011;44677;52.378;10.400;2024-01-15T11:26:26;3.20;;;2.10;;
58896;SDS011;44677;52.378;10.400;2024-01-15T11:28:56;8.90;;;2.30;;
58896;SDS011;44677;52.378;10.400;2024-01-15T11:34:06;4.90;;;2.20;;
58896;SDS011;44677;52.378;10.400;2024-01-15T11:42:03;4.90;;;1.70;;
58896;SDS011;44677;52.378;10.400;2024-01-15T11:44:30;5.10;;;2.20;;
58896;SDS011;44677;52.378;10.400;2024-01-15T11:47:01;8.00;;;2.30;;
58896;SDS011;44677;52.378;10.400;2024-01-15T11:52:24;7.20;;;2.20;;
58896;SDS011;44677;52.378;10.400;2024-01-15T11:57:46;4.40;;;1.70;;
58896;SDS011;44677;52.378;10.400;2024-01-15T12:00:12;9.40;;;1.90;;
58896;SDS011;44677;52.378;10.400;2024-01-15T12:02:42;5.50;;;1.80;;
58896;SDS011;44677;52.378;10.400;2024-01-15T12:05:09;8.60;;;1.70;;
58896;SDS011;44677;52.378;10.400;2024-01-15T12:07:35;4.70;;;1.80;;
58896;SDS011;44677;52.378;10.400;2024-01-15T12:10:01;3.70;;;1.40;;
58896;SDS011;44677;52.378;10.400;2024-01-15T12:15:01;3.60;;;1.50;;
58896;SDS011;44677;52.378;10.400;2024-01-15T12:17:26;5.70;;;2.10;;
58896;SDS011;44677;52.378;10.400;2024-01-15T12:19:52;4.70;;;1.60;;
58896;SDS011;44677;52.378;10.400;2024-01-15T12:22:17;5.10;;;1.80;;
58896;SDS011;44677;52.378;10.400;2024-01-15T12:24:42;5.20;;;1.90;;
58896;SDS011;44677;52.378;10.400;2024-01-15T12:27:08;4.00;;;1.90;;
58896;SDS011;44677;52.378;10.400;2024-01-15T12:29:34;5.20;;;2.10;;
58896;SDS011;44677;52.378;10.400;2024-01-15T12:31:59;4.70;;;1.40;;
58896;SDS011;44677;52.378;10.400;2024-01-15T12:34:28;4.80;;;2.10;;
58896;SDS011;44677;52.378;10.400;2024-01-15T12:36:54;1.90;;;1.40;;
58896;SDS011;44677;52.378;10.400;2024-01-15T12:39:22;5.70;;;2.00;;
58896;SDS011;44677;52.378;10.400;2024-01-15T12:41:47;4.00;;;2.40;;
58896;SDS011;44677;52.378;10.400;2024-01-15T12:44:13;5.10;;;1.90;;
58896;SDS011;44677;52.378;10.400;2024-01-15T12:46:38;6.40;;;1.90;;
58896;SDS011;44677;52.378;10.400;2024-01-15T12:49:04;5.80;;;1.70;;
58896;SDS011;44677;52.378;10.400;2024-01-15T12:51:29;6.40;;;1.80;;
58896;SDS011;44677;52.378;10.400;2024-01-15T12:53:55;4.30;;;2.10;;
58896;SDS011;44677;52.378;10.400;2024-01-15T12:56:20;4.80;;;1.80;;
58896;SDS011;44677;52.378;10.400;2024-01-15T12:58:45;4.80;;;1.80;;
58896;SDS011;44677;52.378;10.400;2024-01-15T13:01:12;5.10;;;2.10;;
58896;SDS011;44677;52.378;10.400;2024-01-15T13:03:37;4.70;;;2.80;;
58896;SDS011;44677;52.378;10.400;2024-01-15T13:06:03;3.10;;;2.20;;
58896;SDS011;44677;52.378;10.400;2024-01-15T13:08:28;4.10;;;1.80;;
58896;SDS011;44677;52.378;10.400;2024-01-15T13:10:55;7.60;;;2.10;;
58896;SDS011;44677;52.378;10.400;2024-01-15T13:13:22;4.00;;;1.90;;
58896;SDS011;44677;52.378;10.400;2024-01-15T13:15:47;7.10;;;1.80;;
58896;SDS011;44677;52.378;10.400;2024-01-15T13:18:13;3.90;;;1.90;;
58896;SDS011;44677;52.378;10.400;2024-01-15T13:20:38;3.00;;;1.80;;
58896;SDS011;44677;52.378;10.400;2024-01-15T13:23:04;6.40;;;1.80;;
58896;SDS011;44677;52.378;10.400;2024-01-15T13:25:29;3.10;;;2.20;;
58896;SDS011;44677;52.378;10.400;2024-01-15T13:27:54;3.20;;;1.80;;
58896;SDS011;44677;52.378;10.400;2024-01-15T13:30:20;4.90;;;1.70;;
58896;SDS011;44677;52.378;10.400;2024-01-15T13:32:45;7.30;;;2.10;;
58896;SDS011;44677;52.378;10.400;2024-01-15T13:35:12;4.30;;;1.40;;
58896;SDS011;44677;52.378;10.400;2024-01-15T13:37:38;4.30;;;1.70;;
58896;SDS011;44677;52.378;10.400;2024-01-15T13:40:06;4.80;;;1.80;;
58896;SDS011;44677;52.378;10.400;2024-01-15T13:42:34;3.30;;;1.30;;
58896;SDS011;44677;52.378;10.400;2024-01-15T13:44:59;4.60;;;1.80;;
58896;SDS011;44677;52.378;10.400;2024-01-15T13:47:25;4.00;;;1.80;;
58896;SDS011;44677;52.378;10.400;2024-01-15T13:49:50;3.20;;;1.50;;
58896;SDS011;44677;52.378;10.400;2024-01-15T13:52:15;4.60;;;1.60;;
58896;SDS011;44677;52.378;10.400;2024-01-15T13:54:41;7.50;;;2.10;;
58896;SDS011;44677;52.378;10.400;2024-01-15T13:57:07;5.50;;;2.00;;
58896;SDS011;44677;52.378;10.400;2024-01-15T13:59:32;3.10;;;1.40;;
58896;SDS011;44677;52.378;10.400;2024-01-15T14:01:58;6.80;;;1.80;;
58896;SDS011;44677;52.378;10.400;2024-01-15T14:04:23;9.50;;;2.10;;
58896;SDS011;44677;52.378;10.400;2024-01-15T14:06:48;8.00;;;2.30;;
58896;SDS011;44677;52.378;10.400;2024-01-15T14:09:14;6.10;;;1.90;;
58896;SDS011;44677;52.378;10.400;2024-01-15T14:11:39;3.60;;;1.60;;
58896;SDS011;44677;52.378;10.400;2024-01-15T14:14:05;5.20;;;2.40;;
58896;SDS011;44677;52.378;10.400;2024-01-15T14:16:33;6.80;;;1.50;;
58896;SDS011;44677;52.378;10.400;2024-01-15T14:18:58;5.70;;;1.90;;
58896;SDS011;44677;52.378;10.400;2024-01-15T14:21:24;9.20;;;2.20;;
58896;SDS011;44677;52.378;10.400;2024-01-15T14:23:49;4.30;;;1.60;;
58896;SDS011;44677;52.378;10.400;2024-01-15T14:26:14;3.40;;;1.70;;
58896;SDS011;44677;52.378;10.400;2024-01-15T14:28:40;7.50;;;2.40;;
58896;SDS011;44677;52.378;10.400;2024-01-15T14:31:05;4.40;;;1.90;;
58896;SDS011;44677;52.378;10.400;2024-01-15T14:33:31;5.20;;;2.00;;
58896;SDS011;44677;52.378;10.400;2024-01-15T14:35:57;2.90;;;1.40;;
58896;SDS011;44677;52.378;10.400;2024-01-15T14:38:22;4.90;;;2.10;;
58896;SDS011;44677;52.378;10.400;2024-01-15T14:40:48;3.20;;;1.70;;
58896;SDS011;44677;52.378;10.400;2024-01-15T14:43:14;2.20;;;1.80;;
58896;SDS011;44677;52.378;10.400;2024-01-15T14:45:40;2.70;;;1.50;;
58896;SDS011;44677;52.378;10.400;2024-01-15T14:48:06;1.70;;;1.30;;
58896;SDS011;44677;52.378;10.400;2024-01-15T14:50:31;4.00;;;2.00;;
58896;SDS011;44677;52.378;10.400;2024-01-15T14:52:56;7.80;;;2.00;;
58896;SDS011;44677;52.378;10.400;2024-01-15T14:55:22;5.30;;;1.90;;
58896;SDS011;44677;52.378;10.400;2024-01-15T14:57:50;2.70;;;1.70;;